sensor_id;sensor_type;location;lat;lon;timestamp;P1;durP1;ratioP1;P2;durP2;ratioP2
14013;SDS011;49110;52.584;13.408;2023-04-25T00:00:24;3.17;;;2.60;;
14013;SDS011;49110;52.584;13.408;2023-04-25T00:01:25;4.97;;;2.80;;
14013;SDS011;49110;52.584;13.408;2023-04-25T00:02:26;3.57;;;2.80;;
14013;SDS011;49110;52.584;13.408;2023-04-25T00:03:28;3.53;;;2.67;;
14013;SDS011;49110;52.584;13.408;2023-04-25T00:04:29;4.63;;;2.67;;
14013;SDS011;49110;52.584;13.408;2023-04-25T00:05:29;5.60;;;3.13;;
14013;SDS011;49110;52.584;13.408;2023-04-25T00:06:30;4.70;;;2.70;;
14013;SDS011;49110;52.584;13.408;2023-04-25T00:07:31;6.43;;;2.77;;
14013;SDS011;49110;52.584;13.408;2023-04-25T00:08:33;4.07;;;2.87;;
14013;SDS011;49110;52.584;13.408;2023-04-25T00:09:34;4.80;;;2.87;;
14013;SDS011;49110;52.584;13.408;2023-04-25T00:10:34;3.00;;;2.60;;
14013;SDS011;49110;52.584;13.408;2023-04-25T00:11:35;3.77;;;2.60;;
14013;SDS011;49110;52.584;13.408;2023-04-25T00:12:36;2.70;;;2.40;;
14013;SDS011;49110;52.584;13.408;2023-04-25T00:13:37;5.73;;;2.80;;
14013;SDS011;49110;52.584;13.408;2023-04-25T00:14:41;3.87;;;2.40;;
14013;SDS011;49110;52.584;13.408;2023-04-25T00:15:42;3.97;;;3.00;;
14013;SDS011;49110;52.584;13.408;2023-04-25T00:16:43;4.13;;;2.70;;
14013;SDS011;49110;52.584;13.408;2023-04-25T00:17:44;2.63;;;2.40;;
14013;SDS011;49110;52.584;13.408;2023-04-25T00:18:45;4.03;;;2.70;;
14013;SDS011;49110;52.584;13.408;2023-04-25T00:19:51;2.70;;;2.50;;
14013;SDS011;49110;52.584;13.408;2023-04-25T00:20:52;3.13;;;2.43;;
14013;SDS011;49110;52.584;13.408;2023-04-25T00:21:53;4.13;;;2.50;;
14013;SDS011;49110;52.584;13.408;2023-04-25T00:22:54;2.50;;;2.30;;
14013;SDS011;49110;52.584;13.408;2023-04-25T00:23:55;3.70;;;2.30;;
14013;SDS011;49110;52.584;13.408;2023-04-25T00:24:56;3.03;;;2.30;;
14013;SDS011;49110;52.584;13.408;2023-04-25T00:25:59;4.97;;;2.20;;
14013;SDS011;49110;52.584;13.408;2023-04-25T00:27:00;3.97;;;2.53;;
14013;SDS011;49110;52.584;13.408;2023-04-25T00:28:01;4.20;;;2.40;;
14013;SDS011;49110;52.584;13.408;2023-04-25T00:29:01;3.10;;;2.30;;
14013;SDS011;49110;52.584;13.408;2023-04-25T00:30:02;2.93;;;2.40;;
14013;SDS011;49110;52.584;13.408;2023-04-25T00:31:04;4.07;;;2.70;;
14013;SDS011;49110;52.584;13.408;2023-04-25T00:32:04;3.07;;;2.30;;
14013;SDS011;49110;52.584;13.408;2023-04-25T00:33:05;3.80;;;2.30;;
14013;SDS011;49110;52.584;13.408;2023-04-25T00:34:07;6.10;;;2.40;;
14013;SDS011;49110;52.584;13.408;2023-04-25T00:35:09;4.83;;;2.47;;
14013;SDS011;49110;52.584;13.408;2023-04-25T00:36:10;4.20;;;2.57;;
14013;SDS011;49110;52.584;13.408;2023-04-25T00:37:12;3.57;;;2.27;;
14013;SDS011;49110;52.584;13.408;2023-04-25T00:38:13;4.50;;;2.50;;
14013;SDS011;49110;52.584;13.408;2023-04-25T00:39:19;4.03;;;2.40;;
14013;SDS011;49110;52.584;13.408;2023-04-25T00:40:20;5.13;;;2.73;;
14013;SDS011;49110;52.584;13.408;2023-04-25T00:41:21;6.07;;;2.43;;
14013;SDS011;49110;52.584;13.408;2023-04-25T00:42:22;5.33;;;2.63;;
14013;SDS011;49110;52.584;13.408;2023-04-25T00:43:25;4.70;;;2.23;;
14013;SDS011;49110;52.584;13.408;2023-04-25T00:44:26;4.20;;;2.40;;
14013;SDS011;49110;52.584;13.408;2023-04-25T00:45:29;6.90;;;2.70;;
14013;SDS011;49110;52.584;13.408;2023-04-25T00:46:30;3.20;;;2.37;;
14013;SDS011;49110;52.584;13.408;2023-04-25T00:47:31;4.37;;;2.50;;
14013;SDS011;49110;52.584;13.408;2023-04-25T00:48:35;6.37;;;2.60;;
14013;SDS011;49110;52.584;13.408;2023-04-25T00:49:36;4.10;;;2.30;;
14013;SDS011;49110;52.584;13.408;2023-04-25T00:50:37;5.80;;;2.70;;
14013;SDS011;49110;52.584;13.408;2023-04-25T00:51:38;4.93;;;2.33;;
14013;SDS011;49110;52.584;13.408;2023-04-25T00:52:40;5.03;;;2.67;;
14013;SDS011;49110;52.584;13.408;2023-04-25T00:53:42;5.07;;;2.80;;
14013;SDS011;49110;52.584;13.408;2023-04-25T00:54:43;4.23;;;2.50;;
14013;SDS011;49110;52.584;13.408;2023-04-25T00:55:44;5.97;;;3.00;;
14013;SDS011;49110;52.584;13.408;2023-04-25T00:56:45;4.27;;;2.37;;
14013;SDS011;49110;52.584;13.408;2023-04-25T00:57:46;4.90;;;2.50;;
14013;SDS011;49110;52.584;13.408;2023-04-25T00:58:46;5.50;;;2.60;;
14013;SDS011;49110;52.584;13.408;2023-04-25T00:59:48;5.43;;;2.70;;
14013;SDS011;49110;52.584;13.408;2023-04-25T01:00:52;5.63;;;2.37;;
14013;SDS011;49110;52.584;13.408;2023-04-25T01:01:52;5.23;;;2.63;;
14013;SDS011;49110;52.584;13.408;2023-04-25T01:02:53;6.33;;;2.70;;
14013;SDS011;49110;52.584;13.408;2023-04-25T01:03:54;4.17;;;2.50;;
14013;SDS011;49110;52.584;13.408;2023-04-25T01:04:55;5.20;;;2.60;;
14013;SDS011;49110;52.584;13.408;2023-04-25T01:05:56;3.63;;;2.50;;
14013;SDS011;49110;52.584;13.408;2023-04-25T01:06:57;6.00;;;2.90;;
14013;SDS011;49110;52.584;13.408;2023-04-25T01:07:58;4.20;;;2.60;;
14013;SDS011;49110;52.584;13.408;2023-04-25T01:08:59;3.80;;;2.37;;
14013;SDS011;49110;52.584;13.408;2023-04-25T01:10:00;6.60;;;2.90;;
14013;SDS011;49110;52.584;13.408;2023-04-25T01:11:01;3.97;;;2.70;;
14013;SDS011;49110;52.584;13.408;2023-04-25T01:12:02;5.83;;;2.63;;
14013;SDS011;49110;52.584;13.408;2023-04-25T01:13:02;4.80;;;2.50;;
14013;SDS011;49110;52.584;13.408;2023-04-25T01:14:03;5.03;;;2.63;;
14013;SDS011;49110;52.584;13.408;2023-04-25T01:15:04;4.73;;;2.40;;
14013;SDS011;49110;52.584;13.408;2023-04-25T01:16:06;6.93;;;3.37;;
14013;SDS011;49110;52.584;13.408;2023-04-25T01:17:07;4.83;;;2.40;;
14013;SDS011;49110;52.584;13.408;2023-04-25T01:18:09;3.77;;;2.77;;
14013;SDS011;49110;52.584;13.408;2023-04-25T01:19:10;3.80;;;2.47;;
14013;SDS011;49110;52.584;13.408;2023-04-25T01:20:12;5.03;;;2.50;;
14013;SDS011;49110;52.584;13.408;2023-04-25T01:21:14;6.10;;;2.60;;
14013;SDS011;49110;52.584;13.408;2023-04-25T01:22:15;6.37;;;2.70;;
14013;SDS011;49110;52.584;13.408;2023-04-25T01:23:16;4.50;;;2.80;;
14013;SDS011;49110;52.584;13.408;2023-04-25T01:24:18;6.50;;;2.73;;
14013;SDS011;49110;52.584;13.408;2023-04-25T01:25:19;5.37;;;2.60;;
14013;SDS011;49110;52.584;13.408;2023-04-25T01:26:20;5.43;;;2.90;;
14013;SDS011;49110;52.584;13.408;2023-04-25T01:27:21;4.60;;;3.00;;
14013;SDS011;49110;52.584;13.408;2023-04-25T01:28:22;7.37;;;2.90;;
14013;SDS011;49110;52.584;13.408;2023-04-25T01:29:23;6.93;;;2.70;;
14013;SDS011;49110;52.584;13.408;2023-04-25T01:30:27;6.17;;;2.80;;
14013;SDS011;49110;52.584;13.408;2023-04-25T01:31:29;4.50;;;2.70;;
14013;SDS011;49110;52.584;13.408;2023-04-25T01:32:30;5.60;;;2.70;;
14013;SDS011;49110;52.584;13.408;2023-04-25T01:33:38;5.03;;;2.70;;
14013;SDS011;49110;52.584;13.408;2023-04-25T01:34:38;5.57;;;2.77;;
14013;SDS011;49110;52.584;13.408;2023-04-25T01:35:39;6.07;;;2.70;;
14013;SDS011;49110;52.584;13.408;2023-04-25T01:36:40;6.67;;;3.17;;
14013;SDS011;49110;52.584;13.408;2023-04-25T01:37:41;5.23;;;2.80;;
14013;SDS011;49110;52.584;13.408;2023-04-25T01:38:43;6.77;;;3.17;;
14013;SDS011;49110;52.584;13.408;2023-04-25T01:39:43;6.47;;;2.70;;
14013;SDS011;49110;52.584;13.408;2023-04-25T01:40:44;5.43;;;3.03;;
14013;SDS011;49110;52.584;13.408;2023-04-25T01:41:47;7.03;;;3.00;;
14013;SDS011;49110;52.584;13.408;2023-04-25T01:42:48;5.07;;;2.67;;
14013;SDS011;49110;52.584;13.408;2023-04-25T01:43:48;6.57;;;3.20;;
14013;SDS011;49110;52.584;13.408;2023-04-25T01:44:49;6.07;;;3.00;;
14013;SDS011;49110;52.584;13.408;2023-04-25T01:45:50;6.87;;;2.90;;
14013;SDS011;49110;52.584;13.408;2023-04-25T01:46:51;4.73;;;2.67;;
14013;SDS011;49110;52.584;13.408;2023-04-25T01:47:52;4.63;;;3.13;;
14013;SDS011;49110;52.584;13.408;2023-04-25T01:48:52;3.93;;;2.67;;
14013;SDS011;49110;52.584;13.408;2023-04-25T01:49:53;7.00;;;2.93;;
14013;SDS011;49110;52.584;13.408;2023-04-25T01:50:54;5.80;;;3.40;;
14013;SDS011;49110;52.584;13.408;2023-04-25T01:51:54;6.17;;;3.00;;
14013;SDS011;49110;52.584;13.408;2023-04-25T01:52:55;6.70;;;3.00;;
14013;SDS011;49110;52.584;13.408;2023-04-25T01:53:56;4.93;;;2.70;;
14013;SDS011;49110;52.584;13.408;2023-04-25T01:54:57;7.27;;;3.07;;
14013;SDS011;49110;52.584;13.408;2023-04-25T01:56:00;4.37;;;2.83;;
14013;SDS011;49110;52.584;13.408;2023-04-25T01:57:01;5.43;;;2.97;;
14013;SDS011;49110;52.584;13.408;2023-04-25T01:58:05;5.77;;;3.03;;
14013;SDS011;49110;52.584;13.408;2023-04-25T01:59:09;7.50;;;3.27;;
14013;SDS011;49110;52.584;13.408;2023-04-25T02:00:10;5.23;;;3.20;;
14013;SDS011;49110;52.584;13.408;2023-04-25T02:01:11;5.03;;;3.30;;
14013;SDS011;49110;52.584;13.408;2023-04-25T02:02:12;6.10;;;3.03;;
14013;SDS011;49110;52.584;13.408;2023-04-25T02:03:13;5.13;;;3.27;;
14013;SDS011;49110;52.584;13.408;2023-04-25T02:04:13;7.30;;;3.57;;
14013;SDS011;49110;52.584;13.408;2023-04-25T02:05:14;8.60;;;3.50;;
14013;SDS011;49110;52.584;13.408;2023-04-25T02:06:14;5.90;;;3.00;;
14013;SDS011;49110;52.584;13.408;2023-04-25T02:07:14;4.70;;;2.90;;
14013;SDS011;49110;52.584;13.408;2023-04-25T02:08:16;6.97;;;3.00;;
14013;SDS011;49110;52.584;13.408;2023-04-25T02:09:16;7.10;;;3.20;;
14013;SDS011;49110;52.584;13.408;2023-04-25T02:10:17;4.70;;;2.90;;
14013;SDS011;49110;52.584;13.408;2023-04-25T02:11:17;5.67;;;3.13;;
14013;SDS011;49110;52.584;13.408;2023-04-25T02:12:18;4.20;;;3.00;;
14013;SDS011;49110;52.584;13.408;2023-04-25T02:13:19;5.27;;;3.10;;
14013;SDS011;49110;52.584;13.408;2023-04-25T02:14:19;5.87;;;3.17;;
14013;SDS011;49110;52.584;13.408;2023-04-25T02:15:20;8.47;;;3.30;;
14013;SDS011;49110;52.584;13.408;2023-04-25T02:16:20;6.00;;;3.10;;
14013;SDS011;49110;52.584;13.408;2023-04-25T02:17:21;4.97;;;3.30;;
14013;SDS011;49110;52.584;13.408;2023-04-25T02:18:21;5.50;;;3.10;;
14013;SDS011;49110;52.584;13.408;2023-04-25T02:19:22;4.83;;;3.00;;
14013;SDS011;49110;52.584;13.408;2023-04-25T02:20:23;6.70;;;3.10;;
14013;SDS011;49110;52.584;13.408;2023-04-25T02:21:24;4.43;;;2.90;;
14013;SDS011;49110;52.584;13.408;2023-04-25T02:22:25;5.40;;;3.27;;
14013;SDS011;49110;52.584;13.408;2023-04-25T02:23:26;7.83;;;3.63;;
14013;SDS011;49110;52.584;13.408;2023-04-25T02:24:28;7.27;;;3.50;;
14013;SDS011;49110;52.584;13.408;2023-04-25T02:25:29;6.53;;;3.50;;
14013;SDS011;49110;52.584;13.408;2023-04-25T02:26:29;7.33;;;3.20;;
14013;SDS011;49110;52.584;13.408;2023-04-25T02:27:30;5.53;;;3.30;;
14013;SDS011;49110;52.584;13.408;2023-04-25T02:28:31;5.60;;;3.40;;
14013;SDS011;49110;52.584;13.408;2023-04-25T02:29:31;7.10;;;3.00;;
14013;SDS011;49110;52.584;13.408;2023-04-25T02:30:32;5.27;;;3.07;;
14013;SDS011;49110;52.584;13.408;2023-04-25T02:31:32;5.33;;;3.13;;
14013;SDS011;49110;52.584;13.408;2023-04-25T02:32:33;7.53;;;3.27;;
14013;SDS011;49110;52.584;13.408;2023-04-25T02:33:36;7.17;;;2.87;;
14013;SDS011;49110;52.584;13.408;2023-04-25T02:34:37;4.63;;;3.13;;
14013;SDS011;49110;52.584;13.408;2023-04-25T02:35:37;6.43;;;3.30;;
14013;SDS011;49110;52.584;13.408;2023-04-25T02:36:38;6.53;;;3.37;;
14013;SDS011;49110;52.584;13.408;2023-04-25T02:37:39;6.27;;;3.17;;
14013;SDS011;49110;52.584;13.408;2023-04-25T02:38:40;6.33;;;3.27;;
14013;SDS011;49110;52.584;13.408;2023-04-25T02:39:40;6.27;;;3.20;;
14013;SDS011;49110;52.584;13.408;2023-04-25T02:40:41;7.20;;;3.40;;
14013;SDS011;49110;52.584;13.408;2023-04-25T02:41:41;6.50;;;3.20;;
14013;SDS011;49110;52.584;13.408;2023-04-25T02:42:42;6.73;;;3.03;;
14013;SDS011;49110;52.584;13.408;2023-04-25T02:43:43;6.07;;;3.37;;
14013;SDS011;49110;52.584;13.408;2023-04-25T02:44:43;6.83;;;3.73;;
14013;SDS011;49110;52.584;13.408;2023-04-25T02:45:44;5.67;;;3.43;;
14013;SDS011;49110;52.584;13.408;2023-04-25T02:46:44;6.03;;;2.97;;
14013;SDS011;49110;52.584;13.408;2023-04-25T02:47:45;6.10;;;3.37;;
14013;SDS011;49110;52.584;13.408;2023-04-25T02:48:45;5.53;;;3.40;;
14013;SDS011;49110;52.584;13.408;2023-04-25T02:49:46;10.23;;;4.30;;
14013;SDS011;49110;52.584;13.408;2023-04-25T02:50:47;6.47;;;3.30;;
14013;SDS011;49110;52.584;13.408;2023-04-25T02:51:47;5.40;;;3.43;;
14013;SDS011;49110;52.584;13.408;2023-04-25T02:52:48;6.27;;;3.37;;
14013;SDS011;49110;52.584;13.408;2023-04-25T02:53:48;5.80;;;3.30;;
14013;SDS011;49110;52.584;13.408;2023-04-25T02:54:49;4.63;;;3.23;;
14013;SDS011;49110;52.584;13.408;2023-04-25T02:55:49;5.43;;;3.57;;
14013;SDS011;49110;52.584;13.408;2023-04-25T02:56:52;5.70;;;3.40;;
14013;SDS011;49110;52.584;13.408;2023-04-25T02:57:53;7.40;;;3.27;;
14013;SDS011;49110;52.584;13.408;2023-04-25T02:58:55;7.07;;;3.50;;
14013;SDS011;49110;52.584;13.408;2023-04-25T02:59:55;5.50;;;3.10;;
14013;SDS011;49110;52.584;13.408;2023-04-25T03:00:56;5.87;;;3.30;;
14013;SDS011;49110;52.584;13.408;2023-04-25T03:01:56;6.70;;;3.33;;
14013;SDS011;49110;52.584;13.408;2023-04-25T03:02:57;6.03;;;3.57;;
14013;SDS011;49110;52.584;13.408;2023-04-25T03:03:57;9.43;;;4.10;;
14013;SDS011;49110;52.584;13.408;2023-04-25T03:04:58;7.57;;;3.67;;
14013;SDS011;49110;52.584;13.408;2023-04-25T03:05:58;6.83;;;3.97;;
14013;SDS011;49110;52.584;13.408;2023-04-25T03:06:59;5.17;;;3.67;;
14013;SDS011;49110;52.584;13.408;2023-04-25T03:07:59;8.20;;;3.90;;
14013;SDS011;49110;52.584;13.408;2023-04-25T03:09:00;5.43;;;3.43;;
14013;SDS011;49110;52.584;13.408;2023-04-25T03:10:00;6.23;;;3.80;;
14013;SDS011;49110;52.584;13.408;2023-04-25T03:11:01;8.23;;;3.40;;
14013;SDS011;49110;52.584;13.408;2023-04-25T03:12:01;6.03;;;3.40;;
14013;SDS011;49110;52.584;13.408;2023-04-25T03:13:02;6.17;;;3.80;;
14013;SDS011;49110;52.584;13.408;2023-04-25T03:14:03;7.33;;;3.50;;
14013;SDS011;49110;52.584;13.408;2023-04-25T03:15:03;6.50;;;3.63;;
14013;SDS011;49110;52.584;13.408;2023-04-25T03:16:04;4.30;;;3.90;;
14013;SDS011;49110;52.584;13.408;2023-04-25T03:17:05;6.53;;;3.73;;
14013;SDS011;49110;52.584;13.408;2023-04-25T03:18:06;7.50;;;3.70;;
14013;SDS011;49110;52.584;13.408;2023-04-25T03:19:06;5.80;;;3.50;;
14013;SDS011;49110;52.584;13.408;2023-04-25T03:20:07;5.30;;;3.37;;
14013;SDS011;49110;52.584;13.408;2023-04-25T03:21:08;6.40;;;3.97;;
14013;SDS011;49110;52.584;13.408;2023-04-25T03:22:08;7.27;;;4.07;;
14013;SDS011;49110;52.584;13.408;2023-04-25T03:23:09;7.00;;;3.90;;
14013;SDS011;49110;52.584;13.408;2023-04-25T03:24:10;5.40;;;3.43;;
14013;SDS011;49110;52.584;13.408;2023-04-25T03:25:13;6.70;;;3.50;;
14013;SDS011;49110;52.584;13.408;2023-04-25T03:26:13;5.43;;;3.57;;
14013;SDS011;49110;52.584;13.408;2023-04-25T03:27:14;7.43;;;3.60;;
14013;SDS011;49110;52.584;13.408;2023-04-25T03:28:15;8.03;;;3.87;;
14013;SDS011;49110;52.584;13.408;2023-04-25T03:29:15;7.60;;;3.73;;
14013;SDS011;49110;52.584;13.408;2023-04-25T03:30:16;5.20;;;3.50;;
14013;SDS011;49110;52.584;13.408;2023-04-25T03:31:16;6.83;;;3.97;;
14013;SDS011;49110;52.584;13.408;2023-04-25T03:32:17;5.40;;;3.97;;
14013;SDS011;49110;52.584;13.408;2023-04-25T03:33:17;6.70;;;3.60;;
14013;SDS011;49110;52.584;13.408;2023-04-25T03:34:18;5.30;;;3.63;;
14013;SDS011;49110;52.584;13.408;2023-04-25T03:35:18;6.47;;;3.50;;
14013;SDS011;49110;52.584;13.408;2023-04-25T03:36:19;6.63;;;3.87;;
14013;SDS011;49110;52.584;13.408;2023-04-25T03:37:19;7.27;;;3.80;;
14013;SDS011;49110;52.584;13.408;2023-04-25T03:38:20;5.37;;;3.47;;
14013;SDS011;49110;52.584;13.408;2023-04-25T03:39:20;5.73;;;3.60;;
14013;SDS011;49110;52.584;13.408;2023-04-25T03:40:21;6.73;;;3.60;;
14013;SDS011;49110;52.584;13.408;2023-04-25T03:41:21;5.53;;;4.00;;
14013;SDS011;49110;52.584;13.408;2023-04-25T03:42:22;7.53;;;3.80;;
14013;SDS011;49110;52.584;13.408;2023-04-25T03:43:22;5.40;;;3.80;;
14013;SDS011;49110;52.584;13.408;2023-04-25T03:44:23;8.17;;;4.03;;
14013;SDS011;49110;52.584;13.408;2023-04-25T03:45:24;7.00;;;3.90;;
14013;SDS011;49110;52.584;13.408;2023-04-25T03:46:25;7.57;;;4.13;;
14013;SDS011;49110;52.584;13.408;2023-04-25T03:47:25;5.37;;;3.70;;
14013;SDS011;49110;52.584;13.408;2023-04-25T03:48:26;6.43;;;4.37;;
14013;SDS011;49110;52.584;13.408;2023-04-25T03:49:26;8.20;;;3.70;;
14013;SDS011;49110;52.584;13.408;2023-04-25T03:50:27;6.80;;;3.83;;
14013;SDS011;49110;52.584;13.408;2023-04-25T03:51:27;6.80;;;3.60;;
14013;SDS011;49110;52.584;13.408;2023-04-25T03:52:28;8.03;;;3.90;;
14013;SDS011;49110;52.584;13.408;2023-04-25T03:53:29;8.93;;;4.40;;
14013;SDS011;49110;52.584;13.408;2023-04-25T03:54:29;7.40;;;3.57;;
14013;SDS011;49110;52.584;13.408;2023-04-25T03:55:29;6.23;;;4.00;;
14013;SDS011;49110;52.584;13.408;2023-04-25T03:56:30;6.93;;;3.70;;
14013;SDS011;49110;52.584;13.408;2023-04-25T03:57:31;7.07;;;3.87;;
14013;SDS011;49110;52.584;13.408;2023-04-25T03:58:31;4.80;;;3.50;;
14013;SDS011;49110;52.584;13.408;2023-04-25T03:59:32;6.77;;;3.63;;
14013;SDS011;49110;52.584;13.408;2023-04-25T04:00:32;9.13;;;3.93;;
14013;SDS011;49110;52.584;13.408;2023-04-25T04:01:33;5.93;;;3.50;;
14013;SDS011;49110;52.584;13.408;2023-04-25T04:02:33;6.83;;;3.87;;
14013;SDS011;49110;52.584;13.408;2023-04-25T04:03:35;7.00;;;3.83;;
14013;SDS011;49110;52.584;13.408;2023-04-25T04:04:36;5.57;;;3.63;;
14013;SDS011;49110;52.584;13.408;2023-04-25T04:05:37;7.83;;;4.20;;
14013;SDS011;49110;52.584;13.408;2023-04-25T04:06:40;7.23;;;4.17;;
14013;SDS011;49110;52.584;13.408;2023-04-25T04:07:40;5.70;;;3.60;;
14013;SDS011;49110;52.584;13.408;2023-04-25T04:08:42;7.67;;;4.00;;
14013;SDS011;49110;52.584;13.408;2023-04-25T04:09:43;8.23;;;3.80;;
14013;SDS011;49110;52.584;13.408;2023-04-25T04:10:43;7.27;;;4.23;;
14013;SDS011;49110;52.584;13.408;2023-04-25T04:11:44;7.33;;;3.53;;
14013;SDS011;49110;52.584;13.408;2023-04-25T04:12:44;7.83;;;3.63;;
14013;SDS011;49110;52.584;13.408;2023-04-25T04:13:45;6.00;;;3.57;;
14013;SDS011;49110;52.584;13.408;2023-04-25T04:14:45;6.83;;;3.83;;
14013;SDS011;49110;52.584;13.408;2023-04-25T04:15:46;6.47;;;3.97;;
14013;SDS011;49110;52.584;13.408;2023-04-25T04:16:46;6.77;;;3.63;;
14013;SDS011;49110;52.584;13.408;2023-04-25T04:17:48;6.63;;;4.10;;
14013;SDS011;49110;52.584;13.408;2023-04-25T04:18:48;6.13;;;3.77;;
14013;SDS011;49110;52.584;13.408;2023-04-25T04:19:49;7.80;;;3.93;;
14013;SDS011;49110;52.584;13.408;2023-04-25T04:20:49;6.73;;;3.83;;
14013;SDS011;49110;52.584;13.408;2023-04-25T04:21:50;8.23;;;4.13;;
14013;SDS011;49110;52.584;13.408;2023-04-25T04:22:51;5.83;;;4.13;;
14013;SDS011;49110;52.584;13.408;2023-04-25T04:23:51;6.40;;;3.93;;
14013;SDS011;49110;52.584;13.408;2023-04-25T04:24:52;6.97;;;3.60;;
14013;SDS011;49110;52.584;13.408;2023-04-25T04:25:53;5.07;;;3.53;;
14013;SDS011;49110;52.584;13.408;2023-04-25T04:26:54;5.73;;;3.87;;
14013;SDS011;49110;52.584;13.408;2023-04-25T04:27:56;10.83;;;3.90;;
14013;SDS011;49110;52.584;13.408;2023-04-25T04:28:58;10.27;;;4.33;;
14013;SDS011;49110;52.584;13.408;2023-04-25T04:29:59;7.17;;;4.10;;
14013;SDS011;49110;52.584;13.408;2023-04-25T04:31:00;6.60;;;4.10;;
14013;SDS011;49110;52.584;13.408;2023-04-25T04:32:02;9.50;;;4.77;;
14013;SDS011;49110;52.584;13.408;2023-04-25T04:33:03;8.80;;;4.37;;
14013;SDS011;49110;52.584;13.408;2023-04-25T04:34:04;7.63;;;4.10;;
14013;SDS011;49110;52.584;13.408;2023-04-25T04:35:05;5.87;;;3.70;;
14013;SDS011;49110;52.584;13.408;2023-04-25T04:36:06;6.90;;;4.07;;
14013;SDS011;49110;52.584;13.408;2023-04-25T04:37:07;6.23;;;4.00;;
14013;SDS011;49110;52.584;13.408;2023-04-25T04:38:09;6.27;;;3.67;;
14013;SDS011;49110;52.584;13.408;2023-04-25T04:39:12;7.40;;;3.80;;
14013;SDS011;49110;52.584;13.408;2023-04-25T04:40:13;7.00;;;4.17;;
14013;SDS011;49110;52.584;13.408;2023-04-25T04:41:15;5.80;;;3.90;;
14013;SDS011;49110;52.584;13.408;2023-04-25T04:42:16;8.13;;;3.60;;
14013;SDS011;49110;52.584;13.408;2023-04-25T04:43:17;6.83;;;3.77;;
14013;SDS011;49110;52.584;13.408;2023-04-25T04:44:18;5.67;;;3.83;;
14013;SDS011;49110;52.584;13.408;2023-04-25T04:45:19;6.37;;;3.63;;
14013;SDS011;49110;52.584;13.408;2023-04-25T04:46:20;6.40;;;3.80;;
14013;SDS011;49110;52.584;13.408;2023-04-25T04:47:21;8.67;;;4.10;;
14013;SDS011;49110;52.584;13.408;2023-04-25T04:48:23;6.60;;;3.53;;
14013;SDS011;49110;52.584;13.408;2023-04-25T04:49:24;6.40;;;3.33;;
14013;SDS011;49110;52.584;13.408;2023-04-25T04:50:25;7.70;;;3.83;;
14013;SDS011;49110;52.584;13.408;2023-04-25T04:51:27;9.67;;;3.73;;
14013;SDS011;49110;52.584;13.408;2023-04-25T04:52:27;5.63;;;3.53;;
14013;SDS011;49110;52.584;13.408;2023-04-25T04:53:28;7.63;;;3.70;;
14013;SDS011;49110;52.584;13.408;2023-04-25T04:54:28;5.03;;;3.40;;
14013;SDS011;49110;52.584;13.408;2023-04-25T04:55:29;6.90;;;3.30;;
14013;SDS011;49110;52.584;13.408;2023-04-25T04:56:30;7.63;;;3.93;;
14013;SDS011;49110;52.584;13.408;2023-04-25T04:57:30;6.57;;;3.60;;
14013;SDS011;49110;52.584;13.408;2023-04-25T04:58:32;6.33;;;3.40;;
14013;SDS011;49110;52.584;13.408;2023-04-25T04:59:33;6.77;;;3.77;;
14013;SDS011;49110;52.584;13.408;2023-04-25T05:00:34;6.20;;;3.77;;
14013;SDS011;49110;52.584;13.408;2023-04-25T05:01:35;7.67;;;4.00;;
14013;SDS011;49110;52.584;13.408;2023-04-25T05:02:36;7.07;;;3.47;;
14013;SDS011;49110;52.584;13.408;2023-04-25T05:03:38;6.67;;;3.90;;
14013;SDS011;49110;52.584;13.408;2023-04-25T05:04:38;5.10;;;2.93;;
14013;SDS011;49110;52.584;13.408;2023-04-25T05:05:38;8.10;;;4.03;;
14013;SDS011;49110;52.584;13.408;2023-04-25T05:06:42;7.87;;;3.53;;
14013;SDS011;49110;52.584;13.408;2023-04-25T05:07:44;5.40;;;3.63;;
14013;SDS011;49110;52.584;13.408;2023-04-25T05:08:44;6.80;;;3.80;;
14013;SDS011;49110;52.584;13.408;2023-04-25T05:09:45;5.97;;;3.60;;
14013;SDS011;49110;52.584;13.408;2023-04-25T05:10:45;7.23;;;4.83;;
14013;SDS011;49110;52.584;13.408;2023-04-25T05:11:46;8.57;;;4.70;;
14013;SDS011;49110;52.584;13.408;2023-04-25T05:12:47;7.47;;;4.17;;
14013;SDS011;49110;52.584;13.408;2023-04-25T05:13:47;6.30;;;4.90;;
14013;SDS011;49110;52.584;13.408;2023-04-25T05:14:50;6.83;;;3.80;;
14013;SDS011;49110;52.584;13.408;2023-04-25T05:15:50;7.07;;;3.93;;
14013;SDS011;49110;52.584;13.408;2023-04-25T05:16:50;5.97;;;3.70;;
14013;SDS011;49110;52.584;13.408;2023-04-25T05:17:51;8.37;;;4.00;;
14013;SDS011;49110;52.584;13.408;2023-04-25T05:18:51;5.53;;;3.67;;
14013;SDS011;49110;52.584;13.408;2023-04-25T05:19:52;6.23;;;3.90;;
14013;SDS011;49110;52.584;13.408;2023-04-25T05:20:52;10.37;;;3.80;;
14013;SDS011;49110;52.584;13.408;2023-04-25T05:21:53;9.97;;;4.17;;
14013;SDS011;49110;52.584;13.408;2023-04-25T05:22:53;8.90;;;4.50;;
14013;SDS011;49110;52.584;13.408;2023-04-25T05:23:54;7.60;;;3.67;;
14013;SDS011;49110;52.584;13.408;2023-04-25T05:24:55;4.80;;;3.30;;
14013;SDS011;49110;52.584;13.408;2023-04-25T05:25:56;7.90;;;3.67;;
14013;SDS011;49110;52.584;13.408;2023-04-25T05:26:56;7.43;;;4.00;;
14013;SDS011;49110;52.584;13.408;2023-04-25T05:27:57;6.87;;;4.10;;
14013;SDS011;49110;52.584;13.408;2023-04-25T05:28:58;6.17;;;3.93;;
14013;SDS011;49110;52.584;13.408;2023-04-25T05:29:58;8.77;;;3.80;;
14013;SDS011;49110;52.584;13.408;2023-04-25T05:30:59;8.73;;;4.43;;
14013;SDS011;49110;52.584;13.408;2023-04-25T05:32:00;10.37;;;3.90;;
14013;SDS011;49110;52.584;13.408;2023-04-25T05:33:00;6.13;;;3.57;;
14013;SDS011;49110;52.584;13.408;2023-04-25T05:34:01;9.40;;;3.87;;
14013;SDS011;49110;52.584;13.408;2023-04-25T05:35:04;5.13;;;3.60;;
14013;SDS011;49110;52.584;13.408;2023-04-25T05:36:06;6.63;;;3.40;;
14013;SDS011;49110;52.584;13.408;2023-04-25T05:37:07;5.43;;;3.37;;
14013;SDS011;49110;52.584;13.408;2023-04-25T05:38:08;6.50;;;3.57;;
14013;SDS011;49110;52.584;13.408;2023-04-25T05:39:08;5.70;;;3.40;;
14013;SDS011;49110;52.584;13.408;2023-04-25T05:40:09;5.70;;;3.10;;
14013;SDS011;49110;52.584;13.408;2023-04-25T05:41:10;6.47;;;3.50;;
14013;SDS011;49110;52.584;13.408;2023-04-25T05:42:10;6.27;;;3.70;;
14013;SDS011;49110;52.584;13.408;2023-04-25T05:43:11;8.30;;;4.23;;
14013;SDS011;49110;52.584;13.408;2023-04-25T05:44:11;6.23;;;3.80;;
14013;SDS011;49110;52.584;13.408;2023-04-25T05:45:12;7.07;;;3.50;;
14013;SDS011;49110;52.584;13.408;2023-04-25T05:46:13;5.97;;;3.33;;
14013;SDS011;49110;52.584;13.408;2023-04-25T05:47:13;6.80;;;3.87;;
14013;SDS011;49110;52.584;13.408;2023-04-25T05:48:13;6.80;;;3.50;;
14013;SDS011;49110;52.584;13.408;2023-04-25T05:49:14;8.67;;;3.90;;
14013;SDS011;49110;52.584;13.408;2023-04-25T05:50:14;5.47;;;3.67;;
14013;SDS011;49110;52.584;13.408;2023-04-25T05:51:15;7.07;;;4.17;;
14013;SDS011;49110;52.584;13.408;2023-04-25T05:52:16;6.33;;;3.90;;
14013;SDS011;49110;52.584;13.408;2023-04-25T05:53:17;6.93;;;4.00;;
14013;SDS011;49110;52.584;13.408;2023-04-25T05:54:18;6.43;;;3.90;;
14013;SDS011;49110;52.584;13.408;2023-04-25T05:55:18;7.43;;;4.03;;
14013;SDS011;49110;52.584;13.408;2023-04-25T05:56:19;9.60;;;4.40;;
14013;SDS011;49110;52.584;13.408;2023-04-25T05:57:22;9.13;;;4.50;;
14013;SDS011;49110;52.584;13.408;2023-04-25T05:58:24;6.83;;;4.20;;
14013;SDS011;49110;52.584;13.408;2023-04-25T05:59:24;6.80;;;4.37;;
14013;SDS011;49110;52.584;13.408;2023-04-25T06:00:25;8.27;;;4.47;;
14013;SDS011;49110;52.584;13.408;2023-04-25T06:01:26;8.23;;;4.57;;